sensor_id;sensor_type;location;lat;lon;timestamp;P1;durP1;ratioP1;P2;durP2;ratioP2
78589;SDS011;67888;50.228;7.828;2023-10-09T00:04:14;12.97;;;5.53;;
78589;SDS011;67888;50.228;7.828;2023-10-09T00:09:16;14.02;;;5.78;;
78589;SDS011;67888;50.228;7.828;2023-10-09T00:14:19;12.43;;;5.50;;
78589;SDS011;67888;50.228;7.828;2023-10-09T00:19:19;15.32;;;5.82;;
78589;SDS011;67888;50.228;7.828;2023-10-09T00:24:19;12.33;;;6.17;;
78589;SDS011;67888;50.228;7.828;2023-10-09T00:29:23;15.70;;;7.00;;
78589;SDS011;67888;50.228;7.828;2023-10-09T00:34:26;13.77;;;7.07;;
78589;SDS011;67888;50.228;7.828;2023-10-09T00:39:27;15.00;;;6.63;;
78589;SDS011;67888;50.228;7.828;2023-10-09T00:44:36;14.80;;;6.40;;
78589;SDS011;67888;50.228;7.828;2023-10-09T00:49:39;11.63;;;5.10;;
78589;SDS011;67888;50.228;7.828;2023-10-09T00:54:44;13.23;;;5.70;;
78589;SDS011;67888;50.228;7.828;2023-10-09T00:59:54;11.18;;;4.88;;
78589;SDS011;67888;50.228;7.828;2023-10-09T01:04:59;12.38;;;5.57;;
78589;SDS011;67888;50.228;7.828;2023-10-09T01:09:59;13.03;;;4.90;;
78589;SDS011;67888;50.228;7.828;2023-10-09T01:15:16;16.43;;;5.13;;
78589;SDS011;67888;50.228;7.828;2023-10-09T01:20:36;12.45;;;5.22;;
78589;SDS011;67888;50.228;7.828;2023-10-09T01:25:41;12.40;;;5.30;;
78589;SDS011;67888;50.228;7.828;2023-10-09T01:30:43;12.73;;;4.63;;
78589;SDS011;67888;50.228;7.828;2023-10-09T01:35:45;14.80;;;5.50;;
78589;SDS011;67888;50.228;7.828;2023-10-09T01:40:50;11.13;;;4.68;;
78589;SDS011;67888;50.228;7.828;2023-10-09T01:45:52;14.73;;;4.83;;
78589;SDS011;67888;50.228;7.828;2023-10-09T01:50:52;11.85;;;4.70;;
78589;SDS011;67888;50.228;7.828;2023-10-09T01:55:53;12.33;;;4.83;;
78589;SDS011;67888;50.228;7.828;2023-10-09T02:00:55;9.93;;;4.90;;
78589;SDS011;67888;50.228;7.828;2023-10-09T02:05:56;12.90;;;4.80;;
78589;SDS011;67888;50.228;7.828;2023-10-09T02:10:59;10.35;;;4.60;;
78589;SDS011;67888;50.228;7.828;2023-10-09T02:16:02;12.07;;;4.70;;
78589;SDS011;67888;50.228;7.828;2023-10-09T02:21:16;12.40;;;3.93;;
78589;SDS011;67888;50.228;7.828;2023-10-09T02:26:17;12.00;;;4.80;;
78589;SDS011;67888;50.228;7.828;2023-10-09T02:31:33;10.60;;;3.83;;
78589;SDS011;67888;50.228;7.828;2023-10-09T02:36:35;10.97;;;4.53;;
78589;SDS011;67888;50.228;7.828;2023-10-09T02:41:41;10.23;;;4.20;;
78589;SDS011;67888;50.228;7.828;2023-10-09T02:46:49;11.13;;;4.03;;
78589;SDS011;67888;50.228;7.828;2023-10-09T02:51:50;9.63;;;4.40;;
78589;SDS011;67888;50.228;7.828;2023-10-09T02:56:53;12.48;;;4.50;;
78589;SDS011;67888;50.228;7.828;2023-10-09T03:01:57;10.48;;;4.07;;
78589;SDS011;67888;50.228;7.828;2023-10-09T03:07:00;10.53;;;4.50;;
78589;SDS011;67888;50.228;7.828;2023-10-09T03:12:02;12.90;;;4.38;;
78589;SDS011;67888;50.228;7.828;2023-10-09T03:17:02;12.23;;;4.40;;
78589;SDS011;67888;50.228;7.828;2023-10-09T03:22:06;11.37;;;4.60;;
78589;SDS011;67888;50.228;7.828;2023-10-09T03:27:10;8.43;;;3.73;;
78589;SDS011;67888;50.228;7.828;2023-10-09T03:32:11;10.27;;;3.92;;
78589;SDS011;67888;50.228;7.828;2023-10-09T03:37:11;12.13;;;4.10;;
78589;SDS011;67888;50.228;7.828;2023-10-09T03:42:30;13.07;;;4.13;;
78589;SDS011;67888;50.228;7.828;2023-10-09T03:47:33;11.83;;;3.97;;
78589;SDS011;67888;50.228;7.828;2023-10-09T03:52:34;10.75;;;3.60;;
78589;SDS011;67888;50.228;7.828;2023-10-09T03:57:35;9.57;;;4.10;;
78589;SDS011;67888;50.228;7.828;2023-10-09T04:02:35;11.23;;;4.27;;
78589;SDS011;67888;50.228;7.828;2023-10-09T04:07:36;9.15;;;3.80;;
78589;SDS011;67888;50.228;7.828;2023-10-09T04:12:37;10.40;;;3.70;;
78589;SDS011;67888;50.228;7.828;2023-10-09T04:17:39;11.00;;;3.70;;
78589;SDS011;67888;50.228;7.828;2023-10-09T04:22:43;12.60;;;5.27;;
78589;SDS011;67888;50.228;7.828;2023-10-09T04:27:53;12.55;;;4.65;;
78589;SDS011;67888;50.228;7.828;2023-10-09T04:32:59;13.20;;;4.30;;
78589;SDS011;67888;50.228;7.828;2023-10-09T04:38:04;9.73;;;3.97;;
78589;SDS011;67888;50.228;7.828;2023-10-09T04:43:05;15.00;;;4.18;;
78589;SDS011;67888;50.228;7.828;2023-10-09T04:48:06;10.98;;;3.80;;
78589;SDS011;67888;50.228;7.828;2023-10-09T04:53:07;13.65;;;3.67;;
78589;SDS011;67888;50.228;7.828;2023-10-09T04:58:16;11.47;;;4.43;;
78589;SDS011;67888;50.228;7.828;2023-10-09T05:03:24;10.77;;;3.90;;
78589;SDS011;67888;50.228;7.828;2023-10-09T05:08:29;10.55;;;4.13;;
78589;SDS011;67888;50.228;7.828;2023-10-09T05:13:30;9.93;;;4.20;;
78589;SDS011;67888;50.228;7.828;2023-10-09T05:18:40;12.63;;;4.60;;
78589;SDS011;67888;50.228;7.828;2023-10-09T05:23:41;9.73;;;4.27;;
78589;SDS011;67888;50.228;7.828;2023-10-09T05:28:48;9.82;;;4.13;;
78589;SDS011;67888;50.228;7.828;2023-10-09T05:33:52;9.80;;;4.00;;
78589;SDS011;67888;50.228;7.828;2023-10-09T05:38:53;10.03;;;3.93;;
78589;SDS011;67888;50.228;7.828;2023-10-09T05:43:59;10.80;;;4.50;;
78589;SDS011;67888;50.228;7.828;2023-10-09T05:49:18;13.70;;;6.53;;
78589;SDS011;67888;50.228;7.828;2023-10-09T05:54:24;13.48;;;6.90;;
78589;SDS011;67888;50.228;7.828;2023-10-09T05:59:43;11.40;;;4.77;;
78589;SDS011;67888;50.228;7.828;2023-10-09T06:05:03;14.97;;;5.40;;
78589;SDS011;67888;50.228;7.828;2023-10-09T06:10:23;14.10;;;6.13;;
78589;SDS011;67888;50.228;7.828;2023-10-09T06:15:37;10.98;;;4.88;;
78589;SDS011;67888;50.228;7.828;2023-10-09T06:20:44;10.17;;;4.80;;
78589;SDS011;67888;50.228;7.828;2023-10-09T06:26:08;11.15;;;5.47;;
78589;SDS011;67888;50.228;7.828;2023-10-09T06:31:23;11.40;;;4.50;;
78589;SDS011;67888;50.228;7.828;2023-10-09T06:36:50;11.93;;;4.77;;
78589;SDS011;67888;50.228;7.828;2023-10-09T06:41:53;12.05;;;4.53;;
78589;SDS011;67888;50.228;7.828;2023-10-09T06:47:09;9.50;;;4.07;;
78589;SDS011;67888;50.228;7.828;2023-10-09T06:52:09;14.30;;;4.22;;
78589;SDS011;67888;50.228;7.828;2023-10-09T06:57:16;13.00;;;5.23;;
78589;SDS011;67888;50.228;7.828;2023-10-09T07:02:36;13.83;;;5.00;;
78589;SDS011;67888;50.228;7.828;2023-10-09T07:07:46;17.23;;;6.43;;
78589;SDS011;67888;50.228;7.828;2023-10-09T07:12:55;11.10;;;4.40;;
78589;SDS011;67888;50.228;7.828;2023-10-09T07:17:57;14.63;;;5.83;;
78589;SDS011;67888;50.228;7.828;2023-10-09T07:23:17;20.88;;;12.23;;
78589;SDS011;67888;50.228;7.828;2023-10-09T07:28:21;15.55;;;6.60;;
78589;SDS011;67888;50.228;7.828;2023-10-09T07:33:42;10.03;;;4.77;;
78589;SDS011;67888;50.228;7.828;2023-10-09T07:38:58;13.07;;;6.13;;
78589;SDS011;67888;50.228;7.828;2023-10-09T07:43:59;10.68;;;4.55;;
78589;SDS011;67888;50.228;7.828;2023-10-09T07:49:19;11.97;;;4.83;;
78589;SDS011;67888;50.228;7.828;2023-10-09T07:54:25;12.00;;;4.63;;
78589;SDS011;67888;50.228;7.828;2023-10-09T07:59:32;14.65;;;6.03;;
78589;SDS011;67888;50.228;7.828;2023-10-09T08:04:32;14.18;;;7.30;;
78589;SDS011;67888;50.228;7.828;2023-10-09T08:09:39;17.90;;;7.47;;
78589;SDS011;67888;50.228;7.828;2023-10-09T08:15:09;19.90;;;10.37;;
78589;SDS011;67888;50.228;7.828;2023-10-09T08:20:18;15.30;;;6.80;;
78589;SDS011;67888;50.228;7.828;2023-10-09T08:25:25;15.80;;;6.00;;
78589;SDS011;67888;50.228;7.828;2023-10-09T08:30:27;20.57;;;10.53;;
78589;SDS011;67888;50.228;7.828;2023-10-09T08:35:28;15.75;;;7.15;;
78589;SDS011;67888;50.228;7.828;2023-10-09T08:40:33;12.90;;;6.22;;
78589;SDS011;67888;50.228;7.828;2023-10-09T08:45:38;16.67;;;6.10;;
78589;SDS011;67888;50.228;7.828;2023-10-09T08:50:39;12.67;;;5.43;;
78589;SDS011;67888;50.228;7.828;2023-10-09T08:55:40;11.93;;;4.90;;
78589;SDS011;67888;50.228;7.828;2023-10-09T09:00:41;14.57;;;7.20;;
78589;SDS011;67888;50.228;7.828;2023-10-09T09:05:46;13.80;;;5.43;;
78589;SDS011;67888;50.228;7.828;2023-10-09T09:10:59;12.37;;;5.40;;
78589;SDS011;67888;50.228;7.828;2023-10-09T09:16:15;12.98;;;5.43;;
78589;SDS011;67888;50.228;7.828;2023-10-09T09:21:17;18.10;;;5.78;;
78589;SDS011;67888;50.228;7.828;2023-10-09T09:26:37;15.17;;;4.87;;
78589;SDS011;67888;50.228;7.828;2023-10-09T09:31:51;13.83;;;5.87;;
78589;SDS011;67888;50.228;7.828;2023-10-09T09:36:58;16.10;;;6.40;;
78589;SDS011;67888;50.228;7.828;2023-10-09T09:41:59;13.60;;;6.40;;
78589;SDS011;67888;50.228;7.828;2023-10-09T09:47:07;13.90;;;5.47;;
78589;SDS011;67888;50.228;7.828;2023-10-09T09:52:08;11.20;;;5.30;;
78589;SDS011;67888;50.228;7.828;2023-10-09T09:57:12;16.97;;;6.53;;
78589;SDS011;67888;50.228;7.828;2023-10-09T10:02:13;18.52;;;6.28;;
78589;SDS011;67888;50.228;7.828;2023-10-09T10:07:20;15.13;;;6.82;;
78589;SDS011;67888;50.228;7.828;2023-10-09T10:23:14;12.73;;;5.72;;
78589;SDS011;67888;50.228;7.828;2023-10-09T10:28:18;12.57;;;4.93;;
78589;SDS011;67888;50.228;7.828;2023-10-09T10:34:03;12.88;;;4.93;;
78589;SDS011;67888;50.228;7.828;2023-10-09T10:39:06;10.07;;;4.03;;
78589;SDS011;67888;50.228;7.828;2023-10-09T10:44:30;10.87;;;4.43;;
78589;SDS011;67888;50.228;7.828;2023-10-09T10:49:34;9.17;;;3.70;;
78589;SDS011;67888;50.228;7.828;2023-10-09T10:54:38;9.80;;;3.42;;
78589;SDS011;67888;50.228;7.828;2023-10-09T10:59:39;10.47;;;4.10;;
78589;SDS011;67888;50.228;7.828;2023-10-09T11:04:45;11.23;;;3.80;;
78589;SDS011;67888;50.228;7.828;2023-10-09T11:09:54;10.73;;;3.53;;
78589;SDS011;67888;50.228;7.828;2023-10-09T11:15:06;9.65;;;3.67;;
78589;SDS011;67888;50.228;7.828;2023-10-09T11:20:22;9.95;;;3.90;;
78589;SDS011;67888;50.228;7.828;2023-10-09T11:25:24;9.00;;;3.33;;
78589;SDS011;67888;50.228;7.828;2023-10-09T11:30:32;10.73;;;3.73;;
78589;SDS011;67888;50.228;7.828;2023-10-09T11:35:32;8.73;;;3.70;;
78589;SDS011;67888;50.228;7.828;2023-10-09T11:40:35;9.45;;;4.10;;
78589;SDS011;67888;50.228;7.828;2023-10-09T11:45:53;12.30;;;3.93;;
78589;SDS011;67888;50.228;7.828;2023-10-09T11:50:56;10.35;;;4.07;;
78589;SDS011;67888;50.228;7.828;2023-10-09T11:55:57;8.93;;;3.90;;
78589;SDS011;67888;50.228;7.828;2023-10-09T12:00:59;10.70;;;5.40;;
78589;SDS011;67888;50.228;7.828;2023-10-09T12:06:00;8.93;;;3.40;;
78589;SDS011;67888;50.228;7.828;2023-10-09T12:11:12;10.55;;;3.83;;
78589;SDS011;67888;50.228;7.828;2023-10-09T12:16:14;10.30;;;4.40;;
78589;SDS011;67888;50.228;7.828;2023-10-09T12:21:15;8.80;;;4.20;;
78589;SDS011;67888;50.228;7.828;2023-10-09T12:26:15;10.40;;;4.18;;
78589;SDS011;67888;50.228;7.828;2023-10-09T12:31:17;9.67;;;3.33;;
78589;SDS011;67888;50.228;7.828;2023-10-09T12:36:20;10.10;;;3.80;;
78589;SDS011;67888;50.228;7.828;2023-10-09T12:41:20;8.93;;;3.83;;
78589;SDS011;67888;50.228;7.828;2023-10-09T12:46:28;10.40;;;3.60;;
78589;SDS011;67888;50.228;7.828;2023-10-09T12:51:32;9.33;;;3.70;;
78589;SDS011;67888;50.228;7.828;2023-10-09T12:56:32;9.48;;;4.15;;
78589;SDS011;67888;50.228;7.828;2023-10-09T13:01:33;10.57;;;3.67;;
78589;SDS011;67888;50.228;7.828;2023-10-09T13:06:42;8.55;;;3.60;;
78589;SDS011;67888;50.228;7.828;2023-10-09T13:11:45;9.88;;;3.90;;
78589;SDS011;67888;50.228;7.828;2023-10-09T13:16:48;10.70;;;4.20;;
78589;SDS011;67888;50.228;7.828;2023-10-09T13:21:52;9.15;;;3.78;;
78589;SDS011;67888;50.228;7.828;2023-10-09T13:26:53;10.43;;;3.20;;
78589;SDS011;67888;50.228;7.828;2023-10-09T13:31:58;10.45;;;3.35;;
78589;SDS011;67888;50.228;7.828;2023-10-09T13:37:02;8.63;;;3.25;;
78589;SDS011;67888;50.228;7.828;2023-10-09T13:42:11;10.50;;;4.10;;
78589;SDS011;67888;50.228;7.828;2023-10-09T13:47:12;11.07;;;4.00;;
78589;SDS011;67888;50.228;7.828;2023-10-09T13:52:19;9.87;;;3.37;;
78589;SDS011;67888;50.228;7.828;2023-10-09T13:57:22;10.30;;;4.00;;
78589;SDS011;67888;50.228;7.828;2023-10-09T14:02:31;9.25;;;3.90;;
78589;SDS011;67888;50.228;7.828;2023-10-09T14:07:32;9.27;;;3.15;;
78589;SDS011;67888;50.228;7.828;2023-10-09T14:12:35;9.33;;;3.57;;
78589;SDS011;67888;50.228;7.828;2023-10-09T14:17:39;9.52;;;3.28;;
78589;SDS011;67888;50.228;7.828;2023-10-09T14:22:42;8.32;;;3.70;;
78589;SDS011;67888;50.228;7.828;2023-10-09T14:27:43;9.03;;;3.30;;
78589;SDS011;67888;50.228;7.828;2023-10-09T14:32:44;8.27;;;3.30;;
78589;SDS011;67888;50.228;7.828;2023-10-09T14:37:51;9.27;;;3.78;;
78589;SDS011;67888;50.228;7.828;2023-10-09T14:42:51;8.13;;;3.55;;
78589;SDS011;67888;50.228;7.828;2023-10-09T14:47:53;9.93;;;3.85;;
78589;SDS011;67888;50.228;7.828;2023-10-09T14:52:54;10.10;;;4.10;;
78589;SDS011;67888;50.228;7.828;2023-10-09T14:57:54;9.97;;;3.67;;
78589;SDS011;67888;50.228;7.828;2023-10-09T15:02:55;9.30;;;4.00;;
78589;SDS011;67888;50.228;7.828;2023-10-09T15:07:55;10.90;;;3.90;;
78589;SDS011;67888;50.228;7.828;2023-10-09T15:12:56;10.70;;;3.70;;
78589;SDS011;67888;50.228;7.828;2023-10-09T15:17:56;9.87;;;3.30;;
78589;SDS011;67888;50.228;7.828;2023-10-09T15:22:56;13.18;;;3.75;;
78589;SDS011;67888;50.228;7.828;2023-10-09T15:27:56;10.15;;;3.90;;
78589;SDS011;67888;50.228;7.828;2023-10-09T15:32:57;9.30;;;3.80;;
78589;SDS011;67888;50.228;7.828;2023-10-09T15:37:58;8.73;;;3.47;;
78589;SDS011;67888;50.228;7.828;2023-10-09T15:43:03;12.50;;;4.10;;
78589;SDS011;67888;50.228;7.828;2023-10-09T15:48:04;13.73;;;4.65;;
78589;SDS011;67888;50.228;7.828;2023-10-09T15:53:05;9.90;;;4.30;;
78589;SDS011;67888;50.228;7.828;2023-10-09T15:58:06;10.70;;;3.88;;
78589;SDS011;67888;50.228;7.828;2023-10-09T16:03:08;8.95;;;3.92;;
78589;SDS011;67888;50.228;7.828;2023-10-09T16:08:10;9.73;;;3.67;;
78589;SDS011;67888;50.228;7.828;2023-10-09T16:13:10;9.17;;;3.53;;
78589;SDS011;67888;50.228;7.828;2023-10-09T16:18:13;11.43;;;3.92;;
78589;SDS011;67888;50.228;7.828;2023-10-09T16:23:13;10.10;;;4.00;;
78589;SDS011;67888;50.228;7.828;2023-10-09T16:28:13;9.23;;;3.47;;
78589;SDS011;67888;50.228;7.828;2023-10-09T16:33:15;11.63;;;3.63;;
78589;SDS011;67888;50.228;7.828;2023-10-09T16:38:19;10.30;;;3.50;;
78589;SDS011;67888;50.228;7.828;2023-10-09T16:43:22;8.77;;;3.85;;
78589;SDS011;67888;50.228;7.828;2023-10-09T16:48:26;8.93;;;3.72;;
78589;SDS011;67888;50.228;7.828;2023-10-09T16:53:27;9.50;;;4.07;;
78589;SDS011;67888;50.228;7.828;2023-10-09T16:58:28;10.23;;;3.53;;
78589;SDS011;67888;50.228;7.828;2023-10-09T17:03:28;12.10;;;3.47;;
78589;SDS011;67888;50.228;7.828;2023-10-09T17:08:29;9.30;;;3.67;;
78589;SDS011;67888;50.228;7.828;2023-10-09T17:13:29;10.60;;;3.80;;
78589;SDS011;67888;50.228;7.828;2023-10-09T17:18:30;9.73;;;3.88;;
78589;SDS011;67888;50.228;7.828;2023-10-09T17:23:32;10.50;;;3.80;;
78589;SDS011;67888;50.228;7.828;2023-10-09T17:28:33;10.80;;;3.67;;
78589;SDS011;67888;50.228;7.828;2023-10-09T17:33:33;9.73;;;4.20;;
78589;SDS011;67888;50.228;7.828;2023-10-09T17:38:34;13.23;;;4.70;;
78589;SDS011;67888;50.228;7.828;2023-10-09T17:43:34;10.77;;;4.22;;
78589;SDS011;67888;50.228;7.828;2023-10-09T17:48:35;10.63;;;3.93;;
78589;SDS011;67888;50.228;7.828;2023-10-09T17:53:36;11.65;;;4.50;;
78589;SDS011;67888;50.228;7.828;2023-10-09T17:58:38;10.43;;;4.23;;
78589;SDS011;67888;50.228;7.828;2023-10-09T18:03:44;11.23;;;4.28;;
78589;SDS011;67888;50.228;7.828;2023-10-09T18:08:44;12.03;;;4.60;;
78589;SDS011;67888;50.228;7.828;2023-10-09T18:13:46;12.38;;;4.88;;
78589;SDS011;67888;50.228;7.828;2023-10-09T18:18:47;10.07;;;4.50;;
78589;SDS011;67888;50.228;7.828;2023-10-09T18:23:48;17.50;;;8.43;;
78589;SDS011;67888;50.228;7.828;2023-10-09T18:28:49;28.20;;;13.73;;
78589;SDS011;67888;50.228;7.828;2023-10-09T18:33:49;35.17;;;15.97;;
78589;SDS011;67888;50.228;7.828;2023-10-09T18:38:52;19.43;;;8.03;;
78589;SDS011;67888;50.228;7.828;2023-10-09T18:43:53;18.27;;;7.22;;
78589;SDS011;67888;50.228;7.828;2023-10-09T18:48:54;17.92;;;8.18;;
78589;SDS011;67888;50.228;7.828;2023-10-09T18:54:01;17.33;;;8.20;;
78589;SDS011;67888;50.228;7.828;2023-10-09T18:59:03;15.67;;;7.73;;
78589;SDS011;67888;50.228;7.828;2023-10-09T19:04:07;29.43;;;17.40;;
78589;SDS011;67888;50.228;7.828;2023-10-09T19:09:08;13.60;;;6.77;;
78589;SDS011;67888;50.228;7.828;2023-10-09T19:14:09;12.90;;;5.97;;
78589;SDS011;67888;50.228;7.828;2023-10-09T19:19:09;14.90;;;7.50;;
78589;SDS011;67888;50.228;7.828;2023-10-09T19:24:12;15.40;;;6.63;;
78589;SDS011;67888;50.228;7.828;2023-10-09T19:29:13;12.03;;;6.07;;
78589;SDS011;67888;50.228;7.828;2023-10-09T19:34:14;13.30;;;5.57;;
78589;SDS011;67888;50.228;7.828;2023-10-09T19:39:14;12.63;;;5.80;;
78589;SDS011;67888;50.228;7.828;2023-10-09T19:44:18;12.15;;;5.60;;
78589;SDS011;67888;50.228;7.828;2023-10-09T19:49:18;13.57;;;5.40;;
78589;SDS011;67888;50.228;7.828;2023-10-09T19:54:18;13.18;;;5.32;;
78589;SDS011;67888;50.228;7.828;2023-10-09T19:59:21;14.47;;;5.07;;
78589;SDS011;67888;50.228;7.828;2023-10-09T20:04:21;10.93;;;5.47;;
78589;SDS011;67888;50.228;7.828;2023-10-09T20:09:25;15.10;;;5.95;;
78589;SDS011;67888;50.228;7.828;2023-10-09T20:14:25;15.20;;;5.60;;
78589;SDS011;67888;50.228;7.828;2023-10-09T20:19:25;10.80;;;4.63;;
78589;SDS011;67888;50.228;7.828;2023-10-09T20:24:26;15.37;;;6.40;;
78589;SDS011;67888;50.228;7.828;2023-10-09T20:29:27;13.63;;;4.82;;
78589;SDS011;67888;50.228;7.828;2023-10-09T20:34:28;12.93;;;4.83;;
78589;SDS011;67888;50.228;7.828;2023-10-09T20:39:28;10.97;;;4.63;;
78589;SDS011;67888;50.228;7.828;2023-10-09T20:44:29;11.93;;;4.17;;
78589;SDS011;67888;50.228;7.828;2023-10-09T20:49:29;11.00;;;4.23;;
78589;SDS011;67888;50.228;7.828;2023-10-09T20:54:31;12.85;;;4.78;;
78589;SDS011;67888;50.228;7.828;2023-10-09T20:59:32;10.70;;;4.40;;
78589;SDS011;67888;50.228;7.828;2023-10-09T21:04:33;11.13;;;3.80;;
78589;SDS011;67888;50.228;7.828;2023-10-09T21:09:33;10.87;;;3.83;;
78589;SDS011;67888;50.228;7.828;2023-10-09T21:14:35;10.50;;;3.55;;
78589;SDS011;67888;50.228;7.828;2023-10-09T21:19:35;9.90;;;4.00;;
78589;SDS011;67888;50.228;7.828;2023-10-09T21:24:36;11.03;;;4.50;;
78589;SDS011;67888;50.228;7.828;2023-10-09T21:29:37;12.40;;;4.47;;
78589;SDS011;67888;50.228;7.828;2023-10-09T21:34:38;10.93;;;3.72;;
78589;SDS011;67888;50.228;7.828;2023-10-09T21:39:39;12.33;;;5.10;;
78589;SDS011;67888;50.228;7.828;2023-10-09T21:44:39;11.03;;;3.83;;
78589;SDS011;67888;50.228;7.828;2023-10-09T21:49:39;11.50;;;3.87;;
78589;SDS011;67888;50.228;7.828;2023-10-09T21:54:40;12.87;;;3.97;;
78589;SDS011;67888;50.228;7.828;2023-10-09T21:59:40;10.90;;;3.97;;
78589;SDS011;67888;50.228;7.828;2023-10-09T22:04:40;12.27;;;4.43;;
78589;SDS011;67888;50.228;7.828;2023-10-09T22:09:41;13.13;;;3.70;;
78589;SDS011;67888;50.228;7.828;2023-10-09T22:14:44;12.57;;;3.88;;
78589;SDS011;67888;50.228;7.828;2023-10-09T22:19:45;10.60;;;3.85;;
78589;SDS011;67888;50.228;7.828;2023-10-09T22:24:46;9.67;;;4.20;;
78589;SDS011;67888;50.228;7.828;2023-10-09T22:29:48;11.35;;;4.43;;
78589;SDS011;67888;50.228;7.828;2023-10-09T22:34:52;9.93;;;3.92;;
78589;SDS011;67888;50.228;7.828;2023-10-09T22:39:57;9.40;;;3.47;;
78589;SDS011;67888;50.228;7.828;2023-10-09T22:45:00;9.50;;;3.50;;
78589;SDS011;67888;50.228;7.828;2023-10-09T22:50:00;11.43;;;3.97;;
78589;SDS011;67888;50.228;7.828;2023-10-09T22:55:17;8.27;;;3.30;;
78589;SDS011;67888;50.228;7.828;2023-10-09T23:00:17;11.77;;;4.03;;
78589;SDS011;67888;50.228;7.828;2023-10-09T23:05:36;9.70;;;3.63;;
78589;SDS011;67888;50.228;7.828;2023-10-09T23:10:44;11.03;;;4.30;;
78589;SDS011;67888;50.228;7.828;2023-10-09T23:15:50;9.38;;;3.38;;
78589;SDS011;67888;50.228;7.828;2023-10-09T23:21:06;8.27;;;3.60;;
78589;SDS011;67888;50.228;7.828;2023-10-09T23:26:28;10.10;;;3.80;;
78589;SDS011;67888;50.228;7.828;2023-10-09T23:31:34;9.70;;;3.97;;
78589;SDS011;67888;50.228;7.828;2023-10-09T23:36:47;9.75;;;3.72;;
78589;SDS011;67888;50.228;7.828;2023-10-09T23:41:48;9.00;;;3.45;;
78589;SDS011;67888;50.228;7.828;2023-10-09T23:47:05;9.13;;;3.30;;
78589;SDS011;67888;50.228;7.828;2023-10-09T23:52:09;11.95;;;4.07;;
78589;SDS011;67888;50.228;7.828;2023-10-09T23:57:10;10.90;;;4.15;;
